Time;durP1;ratioP1;P1;durP2;ratioP2;P2;SDS_P1;SDS_P2;PMS_P1;PMS_P2;Temp;Humidity;BMP_temperature;BMP_pressure;BME280_temperature;BME280_humidity;BME280_pressure;Samples;Min_cycle;Max_cycle;Signal;HPM_P1;HPM_P2
2023/06/29 13:10:11;;;;;;;;;30.20;25.40;;;;;33.67;31.72;101077.63;5564958;23;46538;-78
2023/06/29 13:12:39;;;;;;;;;25.80;25.80;;;;;33.63;30.59;101068.75;4954557;28;46256;-79
2023/06/29 13:15:05;;;;;;;;;33.75;28.25;;;;;33.76;31.18;101063.31;4954853;28;46440;-81
2023/06/29 13:17:31;;;;;;;;;27.00;25.75;;;;;33.81;31.81;101061.13;4953192;28;45705;-79
2023/06/29 13:19:56;;;;;;;;;28.00;26.00;;;;;33.73;31.61;101056.16;4955941;28;45312;-79
2023/06/29 13:22:22;;;;;;;;;28.50;25.00;;;;;33.72;32.15;101064.47;4959818;28;45735;-80
2023/06/29 13:24:48;;;;;;;;;28.60;27.20;;;;;33.27;31.86;101042.81;4956587;28;47228;-78
2023/06/29 13:27:14;;;;;;;;;26.75;23.75;;;;;33.19;32.58;101089.03;4954338;28;45468;-81
2023/06/29 13:29:40;;;;;;;;;17.50;17.50;;;;;32.78;32.75;101087.09;4958047;28;45475;-80
2023/06/29 13:32:06;;;;;;;;;26.50;23.25;;;;;32.20;33.58;101066.09;4961373;28;45283;-79
2023/06/29 13:34:31;;;;;;;;;19.75;17.00;;;;;31.73;33.93;101076.19;4958331;28;46472;-81
2023/06/29 13:36:56;;;;;;;;;20.75;20.25;;;;;31.26;34.43;101079.88;4965995;28;45294;-80
2023/06/29 13:39:22;;;;;;;;;24.00;20.25;;;;;30.94;35.00;101103.53;4954155;28;45403;-79
2023/06/29 13:41:49;;;;;;;;;24.00;21.75;;;;;30.32;35.77;101068.66;4955914;28;45428;-80
2023/06/29 13:44:14;;;;;;;;;29.00;22.25;;;;;30.03;35.90;101077.50;4958134;28;47169;-78
2023/06/29 13:46:41;;;;;;;;;21.50;19.25;;;;;29.92;35.67;101116.22;4956969;28;45443;-79
2023/06/29 13:49:07;;;;;;;;;14.60;13.40;;;;;29.55;35.78;101084.47;4960056;28;45630;-80
2023/06/29 13:51:34;;;;;;;;;20.75;16.00;;;;;29.47;35.09;101105.78;4958489;28;45440;-79
2023/06/29 13:54:02;;;;;;;;;17.20;14.20;;;;;29.25;35.18;101090.50;4955915;28;48258;-82
2023/06/29 13:56:28;;;;;;;;;19.00;14.60;;;;;29.16;35.53;101080.06;4969407;28;45382;-77
2023/06/29 13:58:54;;;;;;;;;17.50;15.25;;;;;29.36;35.02;101088.13;4956911;28;45398;-78
2023/06/29 14:01:20;;;;;;;;;19.00;15.50;;;;;29.62;34.70;101102.28;4967753;28;45578;-78
2023/06/29 14:03:47;;;;;;;;;12.50;12.50;;;;;29.97;35.07;101099.63;4972779;28;47309;-76
2023/06/29 14:06:13;;;;;;;;;16.20;15.40;;;;;30.24;34.67;101097.31;4955404;28;45266;-78
2023/06/29 14:08:39;;;;;;;;;19.00;16.50;;;;;30.54;34.08;101092.94;4961395;28;45339;-78
2023/06/29 14:11:05;;;;;;;;;11.25;10.25;;;;;30.72;34.25;101107.41;4955000;28;45293;-79
2023/06/29 14:13:31;;;;;;;;;19.25;16.25;;;;;30.72;33.99;101101.97;4961041;28;46530;-79
2023/06/29 14:15:58;;;;;;;;;19.25;17.50;;;;;30.87;33.26;101093.94;4955731;28;45368;-80
2023/06/29 14:18:24;;;;;;;;;22.00;19.50;;;;;30.84;33.45;101072.25;4970439;28;45306;-79
2023/06/29 14:20:49;;;;;;;;;17.75;17.25;;;;;30.98;33.48;101106.03;4958235;28;47330;-82
2023/06/29 14:23:15;;;;;;;;;16.50;14.75;;;;;30.83;33.86;101098.66;4960743;28;45585;-80
2023/06/29 14:25:40;;;;;;;;;18.25;18.00;;;;;30.66;33.76;101099.56;4952904;28;45338;-82
2023/06/29 14:28:05;;;;;;;;;17.50;14.00;;;;;30.52;33.78;101092.13;4958798;28;45386;-79
2023/06/29 14:30:31;;;;;;;;;19.00;17.25;;;;;30.48;33.81;101098.75;4955542;28;53519;-78
2023/06/29 14:32:56;;;;;;;;;19.25;19.00;;;;;30.05;34.55;101065.56;4961038;28;46573;-80
2023/06/29 14:35:21;;;;;;;;;17.75;17.75;;;;;30.15;34.97;101104.13;4956683;28;45362;-79
2023/06/29 14:37:47;;;;;;;;;17.00;13.75;;;;;29.76;35.22;101090.72;4960662;28;45475;-78
2023/06/29 14:40:12;;;;;;;;;17.00;16.25;;;;;29.66;35.34;101126.63;4954700;28;45484;-80
2023/06/29 14:42:37;;;;;;;;;21.75;18.00;;;;;29.50;35.59;101133.75;4955158;28;47216;-80
2023/06/29 14:45:03;;;;;;;;;15.50;14.00;;;;;29.25;36.39;101125.91;4957563;28;45432;-79
2023/06/29 14:47:29;;;;;;;;;16.75;14.00;;;;;28.99;36.36;101111.66;4959693;28;45466;-79
2023/06/29 14:49:54;;;;;;;;;15.75;14.75;;;;;28.76;36.66;101120.91;4958299;28;45258;-80
2023/06/29 14:52:19;;;;;;;;;16.25;14.25;;;;;28.65;37.58;101142.28;4960247;28;45653;-77
2023/06/29 14:54:45;;;;;;;;;15.50;14.00;;;;;28.28;37.66;101108.53;4956422;28;45423;-80
2023/06/29 14:57:10;;;;;;;;;18.25;18.25;;;;;28.18;38.51;101128.94;4958042;28;45437;-81
2023/06/29 14:59:35;;;;;;;;;20.00;15.50;;;;;28.02;38.71;101114.25;4958444;28;45238;-80
2023/06/29 15:02:01;;;;;;;;;16.25;13.50;;;;;27.93;39.42;101123.69;4958660;28;45660;-78
2023/06/29 15:04:26;;;;;;;;;19.75;17.00;;;;;27.76;39.23;101128.94;4970684;28;45223;-79
2023/06/29 15:06:52;;;;;;;;;14.00;14.00;;;;;27.51;41.13;101118.19;4972794;28;45324;-79
2023/06/29 15:09:18;;;;;;;;;21.50;17.25;;;;;27.48;41.27;101135.50;4957783;28;46006;-79
2023/06/29 15:11:44;;;;;;;;;12.50;12.00;;;;;27.33;41.28;101119.81;4952722;28;45329;-80
2023/06/29 15:14:09;;;;;;;;;19.25;18.00;;;;;27.33;41.96;101134.28;4957856;28;45428;-78
2023/06/29 15:16:35;;;;;;;;;21.25;16.50;;;;;27.10;43.27;101099.88;4955097;28;45408;-79
2023/06/29 15:19:00;;;;;;;;;16.50;15.25;;;;;27.22;44.11;101128.38;4946959;28;45407;-78
2023/06/29 15:21:25;;;;;;;;;20.00;15.00;;;;;27.04;43.91;101110.09;4970299;28;52477;-79
2023/06/29 15:23:51;;;;;;;;;21.00;18.50;;;;;27.05;43.58;101123.59;4956822;28;45348;-79
2023/06/29 15:26:17;;;;;;;;;16.75;16.75;;;;;27.08;44.25;101153.31;4956776;28;45346;-80
2023/06/29 15:28:42;;;;;;;;;15.75;14.00;;;;;26.91;44.30;101144.94;4959480;28;45367;-80
2023/06/29 15:31:08;;;;;;;;;17.75;16.25;;;;;26.68;43.90;101138.56;4952257;28;47200;-80
2023/06/29 15:33:33;;;;;;;;;15.25;14.25;;;;;26.45;44.72;101112.28;4959892;28;45254;-79
2023/06/29 15:35:58;;;;;;;;;15.75;14.00;;;;;26.40;45.19;101126.94;4951422;28;45171;-80
2023/06/29 15:38:24;;;;;;;;;17.00;16.25;;;;;26.22;46.35;101128.50;4971559;28;46354;-80
2023/06/29 15:40:49;;;;;;;;;15.00;13.00;;;;;26.17;44.37;101141.31;4948623;28;52799;-79
2023/06/29 15:43:14;;;;;;;;;15.75;13.50;;;;;26.05;45.53;101140.81;4951240;28;45254;-78
2023/06/29 15:45:39;;;;;;;;;13.00;11.25;;;;;25.95;45.24;101143.88;4950883;28;45951;-79
2023/06/29 15:48:05;;;;;;;;;12.25;9.25;;;;;25.77;47.25;101151.66;4951913;28;53491;-79
2023/06/29 15:50:31;;;;;;;;;8.25;7.25;;;;;25.66;46.12;101130.34;4966659;28;54051;-80
2023/06/29 15:52:57;;;;;;;;;11.00;8.00;;;;;25.42;46.95;101114.88;4957302;28;45741;-79
2023/06/29 15:55:22;;;;;;;;;10.75;8.00;;;;;25.39;46.87;101129.41;4953097;28;45325;-80
2023/06/29 15:57:48;;;;;;;;;14.00;9.00;;;;;25.38;46.69;101134.88;4949348;28;45708;-79
2023/06/29 16:00:13;;;;;;;;;9.75;9.75;;;;;25.29;46.67;101133.34;4949238;28;46733;-81
2023/06/29 16:02:39;;;;;;;;;9.25;7.75;;;;;25.24;47.42;101140.72;4956517;28;45318;-77
2023/06/29 16:05:04;;;;;;;;;7.00;7.00;;;;;25.12;46.90;101136.56;4946956;28;45390;-79
2023/06/29 16:07:30;;;;;;;;;6.25;6.25;;;;;25.08;48.01;101136.69;4942171;28;45497;-80
2023/06/29 16:09:55;;;;;;;;;6.75;6.75;;;;;25.00;47.05;101134.19;4945002;28;45741;-78
2023/06/29 16:12:21;;;;;;;;;7.00;5.25;;;;;24.98;48.65;101136.06;4947921;28;45376;-78
2023/06/29 16:14:46;;;;;;;;;7.00;7.00;;;;;24.84;48.57;101120.25;4954058;28;45487;-79
2023/06/29 16:17:11;;;;;;;;;5.50;5.50;;;;;24.83;47.75;101113.06;4956029;28;45486;-80
2023/06/29 16:19:37;;;;;;;;;7.75;7.75;;;;;24.88;48.43;101130.06;4947935;28;46063;-79
2023/06/29 16:22:02;;;;;;;;;7.00;7.00;;;;;24.87;49.24;101135.50;4961843;28;45286;-80
2023/06/29 16:24:27;;;;;;;;;10.75;9.75;;;;;24.74;48.95;101118.75;4952419;28;45294;-79
2023/06/29 16:26:53;;;;;;;;;10.75;10.25;;;;;24.71;48.65;101108.03;4948710;28;45518;-80
2023/06/29 16:29:18;;;;;;;;;10.75;10.75;;;;;24.88;49.92;101150.81;4962029;28;50541;-81
2023/06/29 16:31:46;;;;;;;;;9.25;9.25;;;;;24.73;49.17;101136.81;4945688;28;45226;-79
2023/06/29 16:34:12;;;;;;;;;11.50;10.00;;;;;24.72;48.55;101147.66;4954114;28;45393;-79
2023/06/29 16:36:37;;;;;;;;;9.50;9.50;;;;;24.43;48.78;101110.63;4955987;28;45464;-79
2023/06/29 16:39:03;;;;;;;;;7.75;7.75;;;;;24.53;50.22;101126.56;4951151;28;46303;-80
2023/06/29 16:41:28;;;;;;;;;8.00;8.00;;;;;24.65;49.38;101132.56;4968318;28;45311;-79
2023/06/29 16:43:53;;;;;;;;;6.00;3.00;;;;;24.78;49.32;101144.75;4961844;28;45343;-79
2023/06/29 16:46:19;;;;;;;;;7.75;6.50;;;;;24.53;48.65;101112.16;4956520;28;45621;-77
2023/06/29 16:48:57;;;;;;;;;6.50;5.00;;;;;24.59;48.62;101136.31;4962133;28;48380;-75
2023/06/29 16:51:23;;;;;;;;;7.00;6.50;;;;;24.61;48.15;101133.56;4952255;28;45345;-75
2023/06/29 16:53:49;;;;;;;;;7.00;7.00;;;;;24.50;48.16;101121.22;4959603;28;45286;-77
2023/06/29 16:56:14;;;;;;;;;6.00;6.00;;;;;24.48;48.57;101127.63;4951425;28;45589;-78
2023/06/29 16:58:40;;;;;;;;;6.50;5.00;;;;;24.53;48.47;101148.19;4959663;28;46321;-76
2023/06/29 17:01:05;;;;;;;;;5.50;4.00;;;;;24.43;48.11;101127.75;4953426;28;45318;-78
2023/06/29 17:03:30;;;;;;;;;4.50;4.50;;;;;24.33;48.50;101128.88;4958842;28;47412;-80
2023/06/29 17:05:55;;;;;;;;;4.50;4.50;;;;;24.36;48.60;101139.59;4959633;28;45408;-80
2023/06/29 17:08:21;;;;;;;;;5.50;5.00;;;;;24.35;48.55;101138.72;4960138;28;54412;-80
2023/06/29 17:10:46;;;;;;;;;5.25;5.25;;;;;24.43;48.24;101133.16;4958342;28;45306;-79
2023/06/29 17:13:11;;;;;;;;;5.75;4.75;;;;;24.42;48.59;101128.63;4961282;28;46070;-78
2023/06/29 17:15:37;;;;;;;;;5.50;5.00;;;;;24.29;48.50;101105.59;4953602;28;46289;-79
2023/06/29 17:18:02;;;;;;;;;9.00;6.50;;;;;24.37;48.63;101127.91;4955974;28;45604;-80
2023/06/29 17:20:27;;;;;;;;;5.50;4.75;;;;;24.32;48.72;101119.91;4957638;28;45476;-77
2023/06/29 17:22:53;;;;;;;;;4.75;4.50;;;;;24.40;48.81;101132.31;4961265;28;45409;-79
2023/06/29 17:25:18;;;;;;;;;7.50;6.50;;;;;24.30;49.26;101119.06;4957865;28;45692;-79
2023/06/29 17:27:44;;;;;;;;;8.25;8.25;;;;;24.34;48.61;101138.78;4961972;28;45458;-80
2023/06/29 17:30:09;;;;;;;;;8.00;6.00;;;;;24.00;49.18;101084.75;4955079;28;45700;-81
2023/06/29 17:32:35;;;;;;;;;6.50;6.50;;;;;24.24;48.39;101132.72;4977339;28;45298;-79
2023/06/29 17:35:00;;;;;;;;;7.25;7.00;;;;;24.19;49.70;101131.09;4955798;28;45345;-80
2023/06/29 17:37:25;;;;;;;;;6.00;4.75;;;;;24.10;48.89;101124.13;4957302;28;45321;-83
2023/06/29 17:39:51;;;;;;;;;8.50;8.50;;;;;24.13;49.89;101132.13;4958292;28;45427;-80
2023/06/29 17:42:21;;;;;;;;;13.00;11.00;;;;;24.10;49.25;101135.81;4970208;28;47899;-78
2023/06/29 17:44:47;;;;;;;;;11.00;11.00;;;;;23.89;49.53;101103.97;4958289;28;45587;-80
2023/06/29 17:47:13;;;;;;;;;15.33;12.67;;;;;24.00;49.68;101122.56;4950558;28;46371;-81
2023/06/29 17:49:39;;;;;;;;;15.67;14.67;;;;;24.09;49.98;101139.44;4957498;28;45276;-79
2023/06/29 17:52:05;;;;;;;;;14.33;12.67;;;;;23.68;49.20;101063.06;4952504;28;45479;-80
2023/06/29 17:54:30;;;;;;;;;16.33;14.00;;;;;23.88;49.28;101094.97;4973369;28;46562;-80
2023/06/29 17:56:55;;;;;;;;;12.00;11.00;;;;;23.94;49.13;101102.00;4967290;28;47871;-79
2023/06/29 17:59:21;;;;;;;;;13.67;13.00;;;;;23.99;49.51;101135.19;4974581;28;45303;-78
2023/06/29 18:01:46;;;;;;;;;12.67;8.67;;;;;23.71;49.38;101088.22;4954862;28;45350;-79
2023/06/29 18:04:11;;;;;;;;;13.00;11.00;;;;;23.85;50.06;101119.34;4959731;28;45412;-79
2023/06/29 18:06:37;;;;;;;;;13.50;10.00;;;;;23.94;49.51;101141.63;4946312;28;45336;-78
2023/06/29 18:09:02;;;;;;;;;11.50;10.50;;;;;23.85;49.68;101127.44;4958773;28;49069;-80
2023/06/29 18:11:27;;;;;;;;;10.25;8.50;;;;;23.61;49.69;101103.72;4971072;28;45842;-79
2023/06/29 18:13:53;;;;;;;;;8.00;7.75;;;;;23.72;50.23;101136.75;4960105;28;45885;-79
2023/06/29 18:16:19;;;;;;;;;8.67;8.00;;;;;23.41;49.80;101105.13;4949509;28;48846;-80
2023/06/29 18:18:44;;;;;;;;;10.00;10.00;;;;;23.73;50.19;101173.66;4960089;28;45452;-78
2023/06/29 18:21:09;;;;;;;;;8.00;8.00;;;;;23.51;49.64;101140.84;4957493;28;45393;-79
2023/06/29 18:23:34;;;;;;;;;11.33;9.33;;;;;23.52;50.66;101152.53;4961048;28;45388;-80
2023/06/29 18:26:01;;;;;;;;;7.33;6.67;;;;;23.19;49.84;101102.03;4958618;28;47840;-80
2023/06/29 18:28:27;;;;;;;;;12.67;11.33;;;;;23.19;50.98;101114.63;4959399;28;45357;-79
2023/06/29 18:30:52;;;;;;;;;6.00;5.33;;;;;23.30;50.24;101135.94;4954662;28;45468;-80
2023/06/29 18:33:17;;;;;;;;;11.67;10.00;;;;;23.09;50.74;101111.25;4960700;28;45293;-78
2023/06/29 18:35:43;;;;;;;;;13.67;12.00;;;;;23.25;51.63;101157.66;4957099;28;45660;-79
2023/06/29 18:38:08;;;;;;;;;11.33;8.67;;;;;23.10;51.49;101144.50;4975867;28;45522;-80
2023/06/29 18:40:33;;;;;;;;;9.67;8.00;;;;;22.94;51.74;101123.25;4948947;28;45460;-80
2023/06/29 18:42:59;;;;;;;;;6.33;6.33;;;;;22.99;51.80;101148.34;4959085;28;45975;-79
2023/06/29 18:45:28;;;;;;;;;9.67;7.00;;;;;22.92;52.57;101140.38;4951438;28;45762;-80
2023/06/29 18:47:53;;;;;;;;;6.00;6.00;;;;;23.07;51.34;101168.84;4958845;28;45351;-79
2023/06/29 18:50:19;;;;;;;;;8.00;6.33;;;;;23.10;50.82;101172.34;4956998;28;45374;-78
2023/06/29 18:52:44;;;;;;;;;5.00;5.00;;;;;23.06;51.89;101167.06;4960529;28;45227;-79
2023/06/29 18:55:09;;;;;;;;;6.00;6.00;;;;;22.62;51.69;101113.13;4956601;28;47049;-79
2023/06/29 18:57:35;;;;;;;;;7.67;7.00;;;;;22.64;51.91;101116.69;4955586;28;45306;-79
2023/06/29 19:00:00;;;;;;;;;7.00;7.00;;;;;22.74;51.35;101136.22;4954791;28;45151;-79
2023/06/29 19:02:26;;;;;;;;;8.33;6.00;;;;;22.89;50.98;101178.19;4955556;28;45384;-79
2023/06/29 19:04:51;;;;;;;;;7.00;6.00;;;;;22.69;51.65;101140.84;4955806;28;45423;-80
2023/06/29 19:07:17;;;;;;;;;7.67;7.33;;;;;22.31;51.14;101088.59;4955913;28;45319;-80
2023/06/29 19:09:42;;;;;;;;;6.00;6.00;;;;;22.87;51.24;101177.31;4955156;28;45439;-80
2023/06/29 19:12:08;;;;;;;;;8.00;7.67;;;;;22.68;51.81;101158.81;4957425;28;45535;-80
2023/06/29 19:14:34;;;;;;;;;9.67;9.00;;;;;22.46;52.21;101136.81;4958058;28;45419;-80
2023/06/29 19:16:59;;;;;;;;;11.33;11.00;;;;;22.51;52.06;101148.34;4950814;28;45454;-81
2023/06/29 19:19:25;;;;;;;;;9.00;8.00;;;;;22.75;51.98;101197.31;4956805;28;45583;-79
2023/06/29 19:21:51;;;;;;;;;6.67;5.00;;;;;22.57;51.45;101166.22;4950627;28;46621;-79
2023/06/29 19:24:17;;;;;;;;;11.67;7.33;;;;;22.45;52.83;101164.66;4958097;28;45268;-80
2023/06/29 19:26:43;;;;;;;;;11.33;7.33;;;;;22.45;51.58;101166.47;4948159;28;45321;-78
2023/06/29 19:29:10;;;;;;;;;6.00;5.00;;;;;22.43;52.05;101179.06;4968484;28;45335;-79
2023/06/29 19:31:36;;;;;;;;;6.00;6.00;;;;;22.40;53.06;101180.00;4948088;28;45494;-80
2023/06/29 19:34:02;;;;;;;;;6.33;5.00;;;;;22.07;52.88;101136.59;4968788;28;48109;-79
2023/06/29 19:36:28;;;;;;;;;4.67;4.33;;;;;22.37;53.12;101190.84;4954264;28;45468;-79
2023/06/29 19:38:53;;;;;;;;;9.67;6.00;;;;;22.18;52.86;101165.16;4970057;28;45432;-80
2023/06/29 19:41:19;;;;;;;;;6.00;5.67;;;;;22.30;53.35;101197.28;4948706;28;45967;-79
2023/06/29 19:43:44;;;;;;;;;6.00;4.33;;;;;22.10;53.08;101171.53;4954844;28;46068;-77
2023/06/29 19:46:09;;;;;;;;;1.00;1.00;;;;;22.05;53.66;101168.03;4952695;28;45342;-79
2023/06/29 19:48:35;;;;;;;;;4.00;4.00;;;;;22.13;54.59;101193.03;4952980;28;45398;-80
2023/06/29 19:51:00;;;;;;;;;4.33;3.00;;;;;22.02;52.91;101188.75;4952016;28;46548;-79
2023/06/29 19:53:26;;;;;;;;;5.00;3.00;;;;;21.86;53.65;101166.56;4952645;28;47031;-79
2023/06/29 19:55:52;;;;;;;;;2.33;2.33;;;;;21.62;54.20;101141.84;4953290;28;45450;-79
2023/06/29 19:58:18;;;;;;;;;3.00;3.00;;;;;21.76;54.27;101173.00;4958026;28;45432;-79
2023/06/29 20:00:43;;;;;;;;;2.67;2.67;;;;;21.94;54.66;101210.41;4949355;28;46336;-79
2023/06/29 20:03:09;;;;;;;;;2.67;2.67;;;;;21.94;55.05;101222.97;4945565;28;45361;-80
2023/06/29 20:05:34;;;;;;;;;0.25;0.25;;;;;21.89;54.64;101231.13;4966613;28;45451;-80
2023/06/29 20:07:59;;;;;;;;;1.75;1.75;;;;;21.56;54.08;101178.69;4953336;28;45537;-78
2023/06/29 20:10:25;;;;;;;;;3.00;1.67;;;;;21.28;55.01;101151.28;4957243;28;45150;-80
2023/06/29 20:12:50;;;;;;;;;1.67;1.00;;;;;21.70;55.69;101233.19;4958831;28;45405;-80
2023/06/29 20:15:15;;;;;;;;;2.00;1.00;;;;;21.53;56.08;101225.34;4960668;28;45481;-79
2023/06/29 20:17:41;;;;;;;;;1.00;1.00;;;;;21.34;56.11;101195.13;4962738;28;45235;-80
2023/06/29 20:20:07;;;;;;;;;0.00;0.00;;;;;21.24;54.99;101204.22;4952560;28;45790;-80
2023/06/29 20:22:32;;;;;;;;;0.33;0.33;;;;;20.74;56.18;101119.75;4956287;28;45446;-79
2023/06/29 20:24:57;;;;;;;;;0.00;0.00;;;;;20.92;56.89;101175.97;4958423;28;46305;-79
2023/06/29 20:27:25;;;;;;;;;1.00;1.00;;;;;21.30;57.14;101255.22;4956566;28;45384;-79
2023/06/29 20:29:50;;;;;;;;;2.33;1.00;;;;;20.80;57.10;101181.47;4973845;28;47252;-79
2023/06/29 20:32:16;;;;;;;;;0.67;0.00;;;;;20.71;57.36;101165.47;4957184;28;45421;-80
2023/06/29 20:34:41;;;;;;;;;1.00;1.00;;;;;20.91;56.12;101203.72;4959128;28;45541;-79
2023/06/29 20:37:06;;;;;;;;;0.67;0.00;;;;;20.69;56.85;101170.84;4960263;28;45309;-79
2023/06/29 20:39:32;;;;;;;;;0.33;0.33;;;;;21.09;56.69;101240.25;4959840;28;45346;-79
2023/06/29 20:41:58;;;;;;;;;0.33;0.33;;;;;21.06;57.48;101242.06;4959024;28;46615;-78
2023/06/29 20:44:29;;;;;;;;;0.00;0.00;;;;;20.05;57.04;101089.19;4960825;28;45322;-78
2023/06/29 20:46:55;;;;;;;;;0.00;0.00;;;;;20.45;58.63;101168.41;4957644;28;45721;-78
2023/06/29 20:49:20;;;;;;;;;2.00;1.67;;;;;20.79;58.25;101241.50;4958501;28;46062;-80
